createdAt,value
2022-10-04T00:01:11.524Z,60.70
2022-10-04T00:03:37.839Z,60.83
2022-10-04T00:06:04.220Z,60.94
2022-10-04T00:08:30.554Z,61.16
2022-10-04T00:10:56.872Z,61.44
2022-10-04T00:13:23.228Z,61.60
2022-10-04T00:15:49.591Z,61.56
2022-10-04T00:18:15.929Z,61.49
2022-10-04T00:20:42.288Z,61.14
2022-10-04T00:23:08.601Z,60.89
2022-10-04T00:25:34.925Z,61.06
2022-10-04T00:28:01.324Z,61.02
2022-10-04T00:30:27.567Z,60.96
2022-10-04T00:32:53.938Z,60.86
2022-10-04T00:35:20.277Z,60.73
2022-10-04T00:37:46.593Z,60.65
2022-10-04T00:40:12.939Z,60.81
2022-10-04T00:42:39.255Z,60.52
2022-10-04T00:45:05.597Z,60.60
2022-10-04T00:47:32.081Z,60.80
2022-10-04T00:49:58.258Z,60.69
2022-10-04T00:52:24.604Z,60.57
2022-10-04T00:54:50.925Z,60.40
2022-10-04T00:57:17.265Z,60.70
2022-10-04T00:59:43.600Z,60.52
2022-10-04T01:02:10.001Z,60.76
2022-10-04T01:04:36.278Z,60.80
2022-10-04T01:07:02.624Z,60.86
2022-10-04T01:09:28.946Z,60.92
2022-10-04T01:11:55.294Z,60.88
2022-10-04T01:14:21.608Z,60.48
2022-10-04T01:16:48.014Z,60.84
2022-10-04T01:19:14.326Z,60.37
2022-10-04T01:21:40.881Z,60.56
2022-10-04T01:24:06.990Z,60.25
2022-10-04T01:26:33.337Z,60.29
2022-10-04T01:28:59.649Z,60.49
2022-10-04T01:31:26.086Z,60.18
2022-10-04T01:33:52.339Z,60.26
2022-10-04T01:36:18.667Z,60.60
2022-10-04T01:38:45.029Z,60.69
2022-10-04T01:41:11.369Z,60.39
2022-10-04T01:43:37.684Z,60.53
2022-10-04T01:46:04.082Z,60.61
2022-10-04T01:48:30.370Z,60.53
2022-10-04T01:50:56.690Z,60.77
2022-10-04T01:53:23.025Z,60.62
2022-10-04T01:55:49.347Z,60.52
2022-10-04T01:58:15.664Z,60.71
2022-10-04T02:00:41.994Z,60.98
2022-10-04T02:03:08.310Z,61.17
2022-10-04T02:05:34.655Z,61.14
2022-10-04T02:08:00.992Z,61.25
2022-10-04T02:10:27.312Z,61.45
2022-10-04T02:12:53.671Z,61.63
2022-10-04T02:15:20.022Z,61.40
2022-10-04T02:17:46.352Z,61.33
2022-10-04T02:20:12.682Z,61.48
2022-10-04T02:22:39.013Z,61.42
2022-10-04T02:25:05.332Z,61.90
2022-10-04T02:27:31.686Z,62.10
2022-10-04T02:29:58.028Z,62.25
2022-10-04T02:32:24.339Z,62.22
2022-10-04T02:34:50.685Z,62.48
2022-10-04T02:37:17.083Z,62.50
2022-10-04T02:39:43.422Z,62.45
2022-10-04T02:42:09.764Z,62.73
2022-10-04T02:44:36.082Z,63.03
2022-10-04T02:47:02.404Z,63.10
2022-10-04T02:49:28.753Z,63.10
2022-10-04T02:51:55.059Z,63.01
2022-10-04T02:54:21.402Z,63.15
2022-10-04T02:56:47.740Z,63.60
2022-10-04T02:59:14.068Z,63.62
2022-10-04T03:01:40.730Z,63.43
2022-10-04T03:04:06.762Z,63.40
2022-10-04T03:06:33.096Z,63.22
2022-10-04T03:08:59.483Z,63.30
2022-10-04T03:11:25.796Z,63.21
2022-10-04T03:13:52.142Z,63.04
2022-10-04T03:16:18.540Z,62.73
2022-10-04T03:18:44.798Z,62.29
2022-10-04T03:21:11.116Z,62.42
2022-10-04T03:23:37.444Z,62.60
2022-10-04T03:26:03.761Z,62.54
2022-10-04T03:28:30.175Z,62.50
2022-10-04T03:30:56.501Z,62.27
2022-10-04T03:33:22.793Z,62.15
2022-10-04T03:35:49.138Z,62.42
2022-10-04T03:38:15.473Z,62.33
2022-10-04T03:40:41.807Z,62.22
2022-10-04T03:43:08.147Z,62.48
2022-10-04T03:45:34.504Z,62.63
2022-10-04T03:48:00.785Z,62.67
2022-10-04T03:50:27.109Z,62.96
2022-10-04T03:52:53.452Z,63.01
2022-10-04T03:55:19.769Z,63.30
2022-10-04T03:57:46.132Z,63.61
2022-10-04T04:00:12.464Z,63.70
2022-10-04T04:02:42.465Z,63.51
2022-10-04T04:05:05.180Z,63.53
2022-10-04T04:07:31.523Z,63.86
2022-10-04T04:09:57.854Z,63.60
2022-10-04T04:12:24.194Z,64.18
2022-10-04T04:14:50.539Z,64.26
2022-10-04T04:17:16.875Z,64.31
2022-10-04T04:19:43.197Z,64.27
2022-10-04T04:22:09.579Z,64.26
2022-10-04T04:24:35.934Z,64.42
2022-10-04T04:27:02.349Z,64.64
2022-10-04T04:29:28.712Z,64.77
2022-10-04T04:31:55.105Z,64.71
2022-10-04T04:34:21.377Z,64.48
2022-10-04T04:36:47.717Z,64.38
2022-10-04T04:39:14.056Z,64.27
2022-10-04T04:41:40.618Z,64.29
2022-10-04T04:44:06.715Z,63.89
2022-10-04T04:46:33.120Z,63.67
2022-10-04T04:48:59.483Z,63.57
2022-10-04T04:51:25.806Z,63.83
2022-10-04T04:53:52.191Z,63.85
2022-10-04T04:56:18.526Z,63.76
2022-10-04T04:58:44.864Z,63.71
2022-10-04T05:01:11.224Z,64.02
2022-10-04T05:03:37.587Z,64.12
2022-10-04T05:06:03.929Z,63.84
2022-10-04T05:08:30.261Z,63.64
2022-10-04T05:10:56.602Z,63.07
2022-10-04T05:13:22.944Z,62.84
2022-10-04T05:15:49.303Z,61.46
2022-10-04T05:18:15.620Z,59.85
2022-10-04T05:20:41.942Z,58.47
2022-10-04T05:23:08.263Z,56.58
2022-10-04T05:25:34.607Z,56.46
2022-10-04T05:28:01.021Z,57.22
2022-10-04T05:30:27.342Z,57.94
2022-10-04T05:32:53.656Z,58.60
2022-10-04T05:35:19.997Z,59.17
2022-10-04T05:37:46.352Z,59.39
2022-10-04T05:40:12.692Z,57.82
2022-10-04T05:42:39.008Z,55.61
2022-10-04T05:45:05.379Z,54.30
2022-10-04T05:47:31.693Z,53.84
2022-10-04T05:49:58.035Z,52.76
2022-10-04T05:52:24.346Z,52.92
2022-10-04T05:54:50.674Z,52.61
2022-10-04T05:57:17.015Z,51.62
2022-10-04T05:59:43.369Z,51.34
2022-10-04T06:02:09.791Z,51.96
2022-10-04T06:04:36.084Z,52.44
2022-10-04T06:07:02.413Z,51.08
2022-10-04T06:09:28.736Z,50.50
2022-10-04T06:11:55.114Z,51.00
2022-10-04T06:14:21.529Z,50.46
2022-10-04T06:16:47.949Z,50.93
2022-10-04T06:19:14.241Z,50.90
2022-10-04T06:21:41.011Z,50.85
2022-10-04T06:24:06.929Z,50.60
2022-10-04T06:26:33.271Z,49.89
2022-10-04T06:28:59.618Z,49.35
2022-10-04T06:31:25.951Z,49.40
2022-10-04T06:33:52.330Z,48.32
2022-10-04T06:36:18.666Z,48.15
2022-10-04T06:38:45.009Z,48.40
2022-10-04T06:41:11.356Z,47.84
2022-10-04T06:43:37.716Z,47.93
2022-10-04T06:46:04.123Z,47.59
2022-10-04T06:48:30.396Z,47.87
2022-10-04T06:50:56.780Z,46.18
2022-10-04T06:53:23.104Z,46.37
2022-10-04T06:55:49.441Z,46.54
2022-10-04T06:58:15.789Z,46.79
2022-10-04T07:00:42.103Z,46.76
2022-10-04T07:03:08.432Z,47.54
2022-10-04T07:05:34.800Z,46.40
2022-10-04T07:08:01.126Z,46.34
2022-10-04T07:10:27.461Z,45.37
2022-10-04T07:12:53.781Z,46.29
2022-10-04T07:15:20.102Z,47.55
2022-10-04T07:17:46.427Z,47.75
2022-10-04T07:20:12.769Z,47.81
2022-10-04T07:22:39.157Z,47.83
2022-10-04T07:25:05.491Z,47.96
2022-10-04T07:27:31.809Z,48.71
2022-10-04T07:29:58.152Z,50.07
2022-10-04T07:32:24.471Z,50.57
2022-10-04T07:34:50.811Z,50.91
2022-10-04T07:37:17.133Z,51.01
2022-10-04T07:39:43.454Z,50.85
2022-10-04T07:42:09.792Z,50.58
2022-10-04T07:44:36.112Z,50.40
2022-10-04T07:47:02.442Z,50.49
2022-10-04T07:49:28.783Z,49.94
2022-10-04T07:51:55.110Z,50.23
2022-10-04T07:54:21.456Z,49.74
2022-10-04T07:56:47.798Z,49.09
2022-10-04T07:59:14.115Z,50.11
2022-10-04T08:01:40.555Z,50.33
2022-10-04T08:04:06.786Z,50.30
2022-10-04T08:06:33.124Z,49.38
2022-10-04T08:08:59.571Z,49.05
2022-10-04T08:11:25.876Z,49.07
2022-10-04T08:13:52.216Z,48.14
2022-10-04T08:16:18.616Z,47.65
2022-10-04T08:18:44.863Z,47.69
2022-10-04T08:21:11.215Z,47.40
2022-10-04T08:23:37.533Z,46.95
2022-10-04T08:26:03.881Z,46.66
2022-10-04T08:28:30.241Z,46.42
2022-10-04T08:30:56.634Z,46.17
2022-10-04T08:33:22.917Z,45.89
2022-10-04T08:35:49.236Z,45.67
2022-10-04T08:38:15.580Z,45.25
2022-10-04T08:40:41.925Z,45.52
2022-10-04T08:43:08.300Z,44.93
2022-10-04T08:45:34.643Z,43.44
2022-10-04T08:48:00.975Z,43.00
2022-10-04T08:50:27.307Z,43.00
2022-10-04T08:52:53.631Z,42.33
2022-10-04T08:55:19.975Z,42.64
2022-10-04T08:57:46.309Z,42.43
2022-10-04T09:00:12.630Z,42.43
2022-10-04T09:02:39.034Z,41.78
2022-10-04T09:05:05.282Z,42.51
2022-10-04T09:07:31.622Z,42.54
2022-10-04T09:09:57.982Z,42.31
2022-10-04T09:12:24.320Z,42.58
2022-10-04T09:14:50.634Z,43.08
2022-10-04T09:17:21.847Z,43.16
2022-10-04T09:19:43.297Z,43.30
2022-10-04T09:22:09.636Z,42.47
2022-10-04T09:24:35.989Z,41.60
2022-10-04T09:27:02.302Z,41.63
2022-10-04T09:29:28.658Z,40.67
2022-10-04T09:31:54.977Z,39.64
2022-10-04T09:34:21.308Z,39.62
2022-10-04T09:36:47.624Z,39.60
2022-10-04T09:39:29.400Z,40.87
2022-10-04T09:41:40.271Z,41.36
2022-10-04T09:44:06.618Z,40.77
2022-10-04T09:46:33.081Z,41.21
2022-10-04T09:48:59.299Z,41.06
2022-10-04T09:51:25.637Z,40.30
2022-10-04T09:53:52.001Z,39.61
2022-10-04T09:56:18.318Z,38.96
2022-10-04T09:58:44.664Z,37.96
2022-10-04T10:01:10.987Z,37.66
2022-10-04T10:03:37.308Z,36.71
2022-10-04T10:06:03.652Z,36.43
2022-10-04T10:08:29.976Z,36.42
2022-10-04T10:10:56.320Z,35.79
2022-10-04T10:13:22.680Z,36.02
2022-10-04T10:15:49.033Z,37.34
2022-10-04T10:18:15.349Z,38.58
2022-10-04T10:20:41.684Z,38.85
2022-10-04T10:23:08.038Z,39.62
2022-10-04T10:25:34.341Z,40.32
2022-10-04T10:28:00.708Z,40.09
2022-10-04T10:30:27.028Z,39.63
2022-10-04T10:32:53.369Z,39.75
2022-10-04T10:35:19.683Z,40.25
2022-10-04T10:37:46.009Z,39.25
2022-10-04T10:40:12.426Z,38.30
2022-10-04T10:42:38.673Z,38.27
2022-10-04T10:45:04.989Z,38.69
2022-10-04T10:47:31.319Z,39.70
2022-10-04T10:49:57.663Z,38.66
2022-10-04T10:52:24.096Z,38.53
2022-10-04T10:54:50.403Z,37.72
2022-10-04T10:57:16.743Z,37.96
2022-10-04T10:59:43.111Z,39.29
2022-10-04T11:02:09.502Z,39.52
2022-10-04T11:04:35.775Z,39.26
2022-10-04T11:07:02.097Z,40.42
2022-10-04T11:09:28.415Z,39.71
2022-10-04T11:11:54.733Z,39.33
2022-10-04T11:14:21.084Z,38.33
2022-10-04T11:16:47.717Z,37.82
2022-10-04T11:19:13.790Z,37.03
2022-10-04T11:21:40.125Z,36.45
2022-10-04T11:24:06.467Z,35.53
2022-10-04T11:26:32.789Z,34.62
2022-10-04T11:28:59.105Z,35.93
2022-10-04T11:31:25.453Z,37.08
2022-10-04T11:33:51.753Z,37.74
2022-10-04T11:36:18.074Z,37.97
2022-10-04T11:38:44.423Z,38.42
2022-10-04T11:41:10.773Z,38.88
2022-10-04T11:43:37.116Z,39.59
2022-10-04T11:46:07.278Z,40.01
2022-10-04T11:48:29.799Z,40.14
2022-10-04T11:50:56.140Z,40.06
2022-10-04T11:53:22.484Z,40.03
2022-10-04T11:55:48.805Z,39.47
2022-10-04T11:58:15.138Z,39.10
2022-10-04T12:00:41.481Z,39.47
2022-10-04T12:03:07.854Z,39.82
2022-10-04T12:05:34.163Z,39.97
2022-10-04T12:08:00.504Z,40.14
2022-10-04T12:18:12.615Z,37.94
2022-10-04T12:20:38.942Z,38.43
2022-10-04T12:23:05.328Z,37.97
2022-10-04T12:25:31.644Z,38.14
2022-10-04T12:27:58.042Z,37.89
2022-10-04T12:30:24.336Z,38.37
2022-10-04T12:32:54.326Z,38.95
2022-10-04T12:35:17.052Z,37.77
2022-10-04T12:37:43.377Z,36.04
2022-10-04T12:40:09.696Z,35.54
2022-10-04T12:42:36.041Z,37.01
2022-10-04T12:45:02.372Z,37.46
2022-10-04T12:47:28.691Z,37.94
2022-10-04T12:49:55.043Z,38.64
2022-10-04T12:52:21.358Z,38.56
2022-10-04T12:54:47.691Z,39.45
2022-10-04T12:57:14.046Z,39.72
2022-10-04T12:59:40.373Z,39.88
2022-10-04T13:02:06.852Z,40.15
2022-10-04T13:04:33.138Z,40.07
2022-10-04T13:06:59.482Z,39.96
2022-10-04T13:09:25.802Z,40.18
2022-10-04T13:11:52.159Z,40.05
2022-10-04T13:14:18.513Z,40.17
2022-10-04T13:19:11.154Z,39.84
2022-10-04T13:21:37.473Z,39.71
2022-10-04T13:24:03.800Z,39.74
2022-10-04T13:26:30.130Z,40.33
2022-10-04T13:28:56.470Z,40.60
2022-10-04T13:31:22.890Z,40.32
2022-10-04T13:33:49.135Z,40.69
2022-10-04T13:36:15.474Z,41.08
2022-10-04T13:38:41.811Z,40.71
2022-10-04T13:41:08.133Z,41.08
2022-10-04T13:43:34.457Z,41.01
2022-10-04T13:46:00.900Z,41.10
2022-10-04T13:48:27.168Z,41.54
2022-10-04T13:50:53.504Z,41.04
2022-10-04T13:53:19.849Z,40.95
2022-10-04T13:55:46.185Z,40.95
2022-10-04T13:58:12.534Z,40.62
2022-10-04T14:00:38.955Z,40.30
2022-10-04T14:03:05.257Z,40.81
2022-10-04T14:05:31.538Z,40.75
2022-10-04T14:07:57.858Z,40.76
2022-10-04T14:10:24.181Z,41.32
2022-10-04T14:12:50.503Z,41.43
2022-10-04T14:15:16.823Z,41.99
2022-10-04T14:17:43.185Z,41.96
2022-10-04T14:20:09.498Z,42.37
2022-10-04T14:22:35.844Z,42.26
2022-10-04T14:25:02.184Z,42.05
2022-10-04T14:27:28.526Z,41.91
2022-10-04T14:29:54.842Z,42.08
2022-10-04T14:32:21.273Z,42.40
2022-10-04T14:34:47.515Z,42.78
2022-10-04T14:37:13.838Z,42.58
2022-10-04T14:39:40.172Z,42.91
2022-10-04T14:42:06.498Z,42.99
2022-10-04T14:44:32.857Z,42.92
2022-10-04T14:46:59.180Z,43.20
2022-10-04T14:49:25.532Z,43.30
2022-10-04T14:51:51.872Z,43.29
2022-10-04T14:54:18.192Z,43.87
2022-10-04T14:56:44.861Z,44.01
2022-10-04T14:59:10.855Z,44.31
2022-10-04T15:01:37.276Z,44.98
2022-10-04T15:04:03.584Z,44.79
2022-10-04T15:06:29.863Z,45.31
2022-10-04T15:08:56.201Z,45.26
2022-10-04T15:11:22.525Z,45.67
2022-10-04T15:13:48.899Z,45.52
2022-10-04T15:16:15.308Z,46.09
2022-10-04T15:18:41.578Z,46.39
2022-10-04T15:21:07.945Z,46.08
2022-10-04T15:23:34.266Z,46.34
2022-10-04T15:26:00.587Z,46.92
2022-10-04T15:28:27.012Z,47.01
2022-10-04T15:30:53.335Z,46.96
2022-10-04T15:33:19.632Z,47.19
2022-10-04T15:35:45.953Z,47.52
2022-10-04T15:38:12.267Z,48.12
2022-10-04T15:40:38.614Z,47.94
2022-10-04T15:43:04.949Z,48.20
2022-10-04T15:45:31.342Z,48.78
2022-10-04T15:47:57.618Z,48.75
2022-10-04T15:50:23.963Z,49.47
2022-10-04T15:52:50.330Z,49.21
2022-10-04T15:55:16.670Z,49.26
2022-10-04T15:57:43.158Z,49.59
2022-10-04T16:00:09.501Z,49.36
2022-10-04T16:02:35.889Z,49.51
2022-10-04T16:05:02.167Z,49.65
2022-10-04T16:07:28.488Z,49.92
2022-10-04T16:09:54.812Z,50.24
2022-10-04T16:12:21.133Z,50.10
2022-10-04T16:14:47.479Z,50.38
2022-10-04T16:17:13.817Z,50.56
2022-10-04T16:19:40.344Z,50.72
2022-10-04T16:22:06.675Z,50.76
2022-10-04T16:24:33.081Z,51.10
2022-10-04T16:26:59.411Z,50.94
2022-10-04T16:29:25.761Z,51.09
2022-10-04T16:31:52.080Z,51.44
2022-10-04T16:34:18.408Z,51.65
2022-10-04T16:36:44.974Z,51.79
2022-10-04T16:39:11.070Z,51.86
2022-10-04T16:41:37.406Z,51.82
2022-10-04T16:44:04.113Z,51.61
2022-10-04T16:46:30.785Z,51.80
2022-10-04T16:48:57.132Z,51.88
2022-10-04T16:51:23.465Z,51.75
2022-10-04T16:53:49.787Z,51.74
2022-10-04T16:56:16.150Z,52.05
2022-10-04T16:58:42.523Z,51.89
2022-10-04T17:01:08.902Z,52.09
2022-10-04T17:03:35.276Z,51.81
2022-10-04T17:06:01.579Z,51.95
2022-10-04T17:08:27.898Z,52.08
2022-10-04T17:10:54.233Z,52.17
2022-10-04T17:13:20.598Z,51.83
2022-10-04T17:15:46.984Z,52.37
2022-10-04T17:18:13.296Z,52.17
2022-10-04T17:20:39.642Z,52.09
2022-10-04T17:23:05.968Z,52.28
2022-10-04T17:25:32.348Z,52.47
2022-10-04T17:27:58.702Z,52.73
2022-10-04T17:30:24.994Z,53.00
2022-10-04T17:32:51.326Z,53.29
2022-10-04T17:35:17.671Z,53.17
2022-10-04T17:37:43.991Z,53.12
2022-10-04T17:40:10.323Z,53.38
2022-10-04T17:42:36.656Z,53.23
2022-10-04T17:45:02.980Z,53.39
2022-10-04T17:47:29.351Z,53.45
2022-10-04T17:49:55.668Z,53.48
2022-10-04T17:52:22.010Z,53.58
2022-10-04T17:54:48.353Z,53.64
2022-10-04T17:57:14.698Z,53.80
2022-10-04T17:59:41.040Z,53.71
2022-10-04T18:02:07.501Z,53.83
2022-10-04T18:04:33.726Z,53.84
2022-10-04T18:07:00.044Z,53.86
2022-10-04T18:09:26.367Z,53.55
2022-10-04T18:11:52.711Z,53.95
2022-10-04T18:14:19.038Z,53.99
2022-10-04T18:16:45.633Z,53.91
2022-10-04T18:19:11.705Z,53.98
2022-10-04T18:21:38.049Z,53.85
2022-10-04T18:24:04.380Z,53.94
2022-10-04T18:26:30.726Z,54.33
2022-10-04T18:28:57.071Z,54.03
2022-10-04T18:31:23.475Z,54.70
2022-10-04T18:33:49.717Z,54.83
2022-10-04T18:36:16.057Z,55.03
2022-10-04T18:38:42.372Z,55.00
2022-10-04T18:41:08.707Z,55.08
2022-10-04T18:43:35.130Z,55.19
2022-10-04T18:46:01.470Z,55.29
2022-10-04T18:48:27.788Z,55.42
2022-10-04T18:50:54.110Z,55.26
2022-10-04T18:53:20.454Z,55.30
2022-10-04T18:55:46.825Z,55.39
2022-10-04T18:58:13.137Z,55.53
2022-10-04T19:00:39.532Z,55.57
2022-10-04T19:03:05.838Z,55.45
2022-10-04T19:05:32.156Z,55.76
2022-10-04T19:07:58.480Z,56.16
2022-10-04T19:10:24.817Z,56.54
2022-10-04T19:12:51.149Z,56.10
2022-10-04T19:15:17.495Z,56.30
2022-10-04T19:17:43.864Z,56.59
2022-10-04T19:20:11.445Z,56.56
2022-10-04T19:22:36.553Z,56.87
2022-10-04T19:25:02.900Z,57.27
2022-10-04T19:27:29.284Z,57.33
2022-10-04T19:29:55.600Z,57.22
2022-10-04T19:32:21.908Z,57.50
2022-10-04T19:34:48.254Z,58.01
2022-10-04T19:37:14.607Z,58.27
2022-10-04T19:39:40.928Z,58.51
2022-10-04T19:42:07.274Z,58.39
2022-10-04T19:44:33.657Z,58.33
2022-10-04T19:46:59.976Z,58.51
2022-10-04T19:49:26.299Z,58.87
2022-10-04T19:51:52.727Z,59.13
2022-10-04T19:54:19.050Z,59.24
2022-10-04T19:56:45.637Z,59.10
2022-10-04T19:59:11.709Z,59.29
2022-10-04T20:01:38.057Z,59.22
2022-10-04T20:04:04.460Z,59.61
2022-10-04T20:06:30.748Z,59.55
2022-10-04T20:09:02.199Z,59.51
2022-10-04T20:11:23.448Z,59.76
2022-10-04T20:13:49.789Z,59.98
2022-10-04T20:16:16.133Z,59.77
2022-10-04T20:18:42.486Z,59.64
2022-10-04T20:21:08.824Z,59.73
2022-10-04T20:23:35.166Z,59.94
2022-10-04T20:26:01.533Z,59.92
2022-10-04T20:28:27.939Z,59.84
2022-10-04T20:30:54.216Z,59.83
2022-10-04T20:33:20.549Z,59.88
2022-10-04T20:35:46.905Z,60.02
2022-10-04T20:38:31.219Z,60.43
2022-10-04T20:40:39.819Z,60.71
2022-10-04T20:43:10.225Z,60.73
2022-10-04T20:45:32.530Z,60.63
2022-10-04T20:47:58.852Z,61.14
2022-10-04T20:50:25.224Z,61.14
2022-10-04T20:52:51.514Z,61.17
2022-10-04T20:55:17.845Z,61.64
2022-10-04T20:57:44.190Z,61.30
2022-10-04T21:00:10.587Z,61.56
2022-10-04T21:02:36.923Z,61.54
2022-10-04T21:05:03.348Z,61.69
2022-10-04T21:07:29.682Z,61.52
2022-10-04T21:09:56.013Z,61.78
2022-10-04T21:12:22.351Z,62.01
2022-10-04T21:14:48.668Z,62.47
2022-10-04T21:17:15.011Z,62.61
2022-10-04T21:19:41.347Z,63.08
2022-10-04T21:22:07.718Z,63.08
2022-10-04T21:24:34.033Z,63.11
2022-10-04T21:27:00.379Z,63.54
2022-10-04T21:29:26.735Z,63.58
2022-10-04T21:31:53.089Z,63.63
2022-10-04T21:34:41.107Z,63.75
2022-10-04T21:36:46.006Z,64.00
2022-10-04T21:39:12.076Z,63.78
2022-10-04T21:41:38.446Z,63.73
2022-10-04T21:44:04.791Z,63.74
2022-10-04T21:46:31.178Z,64.05
2022-10-04T21:48:57.434Z,63.96
2022-10-04T21:51:23.771Z,64.26
2022-10-04T21:53:50.114Z,64.35
2022-10-04T21:56:16.448Z,64.23
2022-10-04T21:58:42.840Z,64.35
2022-10-04T22:01:09.218Z,64.54
2022-10-04T22:03:35.486Z,64.32
2022-10-04T22:06:01.869Z,64.86
2022-10-04T22:08:28.189Z,65.64
2022-10-04T22:10:57.712Z,66.07
2022-10-04T22:13:20.856Z,66.66
2022-10-04T22:15:47.173Z,66.96
2022-10-04T22:18:13.494Z,67.46
2022-10-04T22:20:39.874Z,67.78
2022-10-04T22:23:06.216Z,68.17
2022-10-04T22:25:32.531Z,68.26
2022-10-04T22:27:58.980Z,68.59
2022-10-04T22:30:25.257Z,68.73
2022-10-04T22:32:51.600Z,69.09
2022-10-04T22:35:17.925Z,68.94
2022-10-04T22:37:44.270Z,69.04
2022-10-04T22:40:10.607Z,69.22
2022-10-04T22:42:36.944Z,69.44
2022-10-04T22:45:03.304Z,69.79
2022-10-04T22:47:29.644Z,69.97
2022-10-04T22:49:55.976Z,70.25
2022-10-04T22:52:22.321Z,70.29
2022-10-04T22:54:48.633Z,70.23
2022-10-04T22:57:14.978Z,70.24
2022-10-04T22:59:41.315Z,70.56
2022-10-04T23:02:07.637Z,70.57
2022-10-04T23:04:34.023Z,70.36
2022-10-04T23:07:00.292Z,70.35
2022-10-04T23:09:26.623Z,70.37
2022-10-04T23:11:52.946Z,70.54
2022-10-04T23:14:19.283Z,70.08
2022-10-04T23:16:45.826Z,69.99
2022-10-04T23:19:11.941Z,70.04
2022-10-04T23:21:38.265Z,70.58
2022-10-04T23:24:04.603Z,70.92
2022-10-04T23:26:30.945Z,71.26
2022-10-04T23:28:57.259Z,71.85
2022-10-04T23:31:23.677Z,72.15
2022-10-04T23:33:49.948Z,72.14
2022-10-04T23:36:16.270Z,72.41
2022-10-04T23:38:42.652Z,72.71
2022-10-04T23:41:08.967Z,72.66
2022-10-04T23:43:35.294Z,72.71
2022-10-04T23:46:01.715Z,72.70
2022-10-04T23:48:27.958Z,72.50
2022-10-04T23:50:54.310Z,72.13
2022-10-04T23:53:20.705Z,71.84
2022-10-04T23:55:47.045Z,71.54
2022-10-04T23:58:13.357Z,71.41
